Time;durP1;ratioP1;P1;durP2;ratioP2;P2;SDS_P1;SDS_P2;PMS_P1;PMS_P2;Temp;Humidity;BMP_temperature;BMP_pressure;BME280_temperature;BME280_humidity;BME280_pressure;Samples;Min_cycle;Max_cycle;Signal;HPM_P1;HPM_P2
2022/11/17 00:00:29;;;;;;;2.70;2.50;;;10.80;99.90;;;;;;5032821;28;20264;-87
2022/11/17 00:02:55;;;;;;;4.77;2.50;;;10.90;99.90;;;;;;5027455;28;20237;-87
2022/11/17 00:05:21;;;;;;;4.47;2.83;;;11.00;99.90;;;;;;5025198;28;20244;-86
2022/11/17 00:07:47;;;;;;;4.83;2.90;;;11.00;99.90;;;;;;5029214;28;20231;-88
2022/11/17 00:10:14;;;;;;;3.50;2.57;;;10.90;99.90;;;;;;5029938;28;20239;-86
2022/11/17 00:15:24;;;;;;;5.17;3.40;;;10.90;99.90;;;;;;5027261;28;20214;-86
2022/11/17 00:21:17;;;;;;;2.97;2.67;;;10.90;99.90;;;;;;5028143;28;20184;-86
2022/11/17 00:23:45;;;;;;;3.70;3.30;;;10.90;99.90;;;;;;5028944;28;20216;-87
2022/11/17 00:26:13;;;;;;;6.00;4.07;;;10.90;99.90;;;;;;5034421;28;20209;-86
2022/11/17 00:28:38;;;;;;;6.03;3.97;;;11.00;99.90;;;;;;5029041;28;20271;-86
2022/11/17 00:34:05;;;;;;;6.27;3.40;;;11.10;99.90;;;;;;5032990;28;20271;-88
2022/11/17 00:36:52;;;;;;;4.80;3.17;;;11.00;99.90;;;;;;5030034;28;20659;-86
2022/11/17 00:39:21;;;;;;;3.13;2.87;;;11.10;99.90;;;;;;5028376;28;20613;-86
2022/11/17 00:41:47;;;;;;;5.20;3.07;;;11.00;99.90;;;;;;5030120;28;20188;-87
2022/11/17 00:46:49;;;;;;;3.70;2.60;;;11.10;99.90;;;;;;4801243;26;20249;-90
2022/11/17 00:49:15;;;;;;;3.10;2.80;;;11.20;99.90;;;;;;5020569;28;20717;-89
2022/11/17 00:51:41;;;;;;;2.77;2.57;;;11.20;99.90;;;;;;5018845;28;20197;-88
2022/11/17 00:54:10;;;;;;;3.53;2.43;;;11.10;99.90;;;;;;5010996;28;20652;-88
2022/11/17 00:56:36;;;;;;;3.20;2.70;;;11.10;99.90;;;;;;5017045;28;20220;-89
2022/11/17 00:59:03;;;;;;;3.73;2.67;;;11.10;99.90;;;;;;5019029;28;20178;-89
2022/11/17 01:01:29;;;;;;;3.10;2.17;;;11.00;99.90;;;;;;5009220;28;20196;-89
2022/11/17 01:04:01;;;;;;;2.70;2.50;;;11.00;99.90;;;;;;5014959;28;20214;-89
2022/11/17 01:06:30;;;;;;;4.87;2.30;;;11.00;99.90;;;;;;5016338;28;20587;-88
2022/11/17 01:09:00;;;;;;;2.20;2.00;;;11.00;99.90;;;;;;5010548;28;20192;-88
2022/11/17 01:11:26;;;;;;;3.97;2.40;;;10.90;99.90;;;;;;5014366;28;20228;-88
2022/11/17 01:13:57;;;;;;;2.73;2.53;;;11.00;99.90;;;;;;5013555;28;20212;-88
2022/11/17 01:16:23;;;;;;;2.43;2.10;;;11.10;99.90;;;;;;5015144;28;20201;-89
2022/11/17 01:18:50;;;;;;;2.30;2.10;;;11.10;99.90;;;;;;5019307;28;20685;-88
2022/11/17 01:21:20;;;;;;;2.10;1.90;;;11.10;99.90;;;;;;5011812;28;20187;-89
2022/11/17 01:23:47;;;;;;;2.10;2.00;;;11.20;99.90;;;;;;5018832;28;20207;-87
2022/11/17 01:26:16;;;;;;;3.27;2.00;;;11.20;99.90;;;;;;5014433;28;20191;-88
2022/11/17 01:28:42;;;;;;;2.10;2.00;;;11.30;99.90;;;;;;5004394;28;20288;-88
2022/11/17 01:31:13;;;;;;;1.80;1.70;;;11.30;99.90;;;;;;5016385;28;20222;-88
2022/11/17 01:33:38;;;;;;;1.80;1.70;;;11.30;99.90;;;;;;5010769;28;20773;-89
2022/11/17 01:36:09;;;;;;;1.83;1.73;;;11.30;99.90;;;;;;5006986;28;20206;-90
2022/11/17 01:38:35;;;;;;;2.03;1.70;;;11.30;99.90;;;;;;5014640;28;20182;-90
2022/11/17 01:41:03;;;;;;;2.33;1.80;;;11.40;99.90;;;;;;5016782;28;20281;-88
2022/11/17 01:43:52;;;;;;;1.90;1.80;;;11.40;99.90;;;;;;5015930;28;20222;-88
2022/11/17 01:46:27;;;;;;;2.13;1.97;;;11.40;99.90;;;;;;5020749;28;20206;-88
2022/11/17 01:49:04;;;;;;;4.13;2.20;;;11.40;99.90;;;;;;5015472;28;20625;-88
2022/11/17 01:51:32;;;;;;;1.90;1.80;;;11.40;99.90;;;;;;5013837;28;20545;-89
2022/11/17 01:53:59;;;;;;;2.37;2.17;;;11.40;99.90;;;;;;5018301;28;20209;-89
2022/11/17 01:56:32;;;;;;;2.43;1.83;;;11.40;99.90;;;;;;5017691;28;20241;-89
2022/11/17 01:59:06;;;;;;;2.30;2.00;;;11.30;99.90;;;;;;5006304;28;20294;-89
2022/11/17 02:01:32;;;;;;;2.50;2.20;;;11.20;99.90;;;;;;5014642;28;20217;-90
2022/11/17 02:03:59;;;;;;;3.53;2.10;;;11.20;99.90;;;;;;5013338;28;20240;-89
2022/11/17 02:06:35;;;;;;;2.23;2.03;;;11.30;99.90;;;;;;5017666;28;20187;-89
2022/11/17 02:09:04;;;;;;;2.30;2.20;;;11.30;99.90;;;;;;5018595;28;20200;-89
2022/11/17 02:11:35;;;;;;;2.93;2.37;;;11.30;99.90;;;;;;5013924;28;20199;-89
2022/11/17 02:14:03;;;;;;;2.50;2.30;;;11.30;99.90;;;;;;5017952;28;20206;-89
2022/11/17 02:16:29;;;;;;;2.33;2.23;;;11.30;99.90;;;;;;5017712;28;20221;-89
2022/11/17 02:18:55;;;;;;;2.80;2.40;;;11.20;99.90;;;;;;5013934;28;20196;-89
2022/11/17 02:21:49;;;;;;;2.63;2.43;;;11.20;99.90;;;;;;5013272;28;20222;-89
2022/11/17 02:24:53;;;;;;;2.63;2.40;;;11.20;99.90;;;;;;5015731;28;20206;-89
2022/11/17 02:27:37;;;;;;;3.40;2.57;;;11.10;99.90;;;;;;5007466;28;20209;-90
2022/11/17 02:30:11;;;;;;;2.27;2.07;;;11.20;99.90;;;;;;5017577;28;20237;-89
2022/11/17 02:32:56;;;;;;;2.93;2.23;;;11.10;99.90;;;;;;5020564;28;20185;-89
2022/11/17 02:35:39;;;;;;;2.43;2.20;;;11.20;99.90;;;;;;5007889;28;20206;-88
2022/11/17 02:38:15;;;;;;;2.30;2.10;;;11.20;99.90;;;;;;5020844;28;20198;-89
2022/11/17 02:41:29;;;;;;;2.50;2.30;;;11.20;99.90;;;;;;5016912;28;20183;-89
2022/11/17 02:44:05;;;;;;;3.40;2.30;;;11.30;99.90;;;;;;5008852;28;20220;-89
2022/11/17 02:46:48;;;;;;;2.00;1.90;;;11.50;99.90;;;;;;5017285;28;20264;-88
2022/11/17 02:49:24;;;;;;;2.13;2.03;;;11.40;99.90;;;;;;5017245;28;20200;-89
2022/11/17 02:51:55;;;;;;;2.90;2.50;;;11.30;99.90;;;;;;5026768;28;20201;-92
2022/11/17 02:54:22;;;;;;;2.33;2.13;;;11.40;99.90;;;;;;5027403;28;20217;-91
2022/11/17 02:56:48;;;;;;;2.63;2.43;;;11.30;99.90;;;;;;5028573;28;20210;-90
2022/11/17 02:59:17;;;;;;;3.30;2.40;;;11.30;99.90;;;;;;5018019;28;20190;-89
2022/11/17 03:01:48;;;;;;;3.03;2.40;;;11.20;99.90;;;;;;5004999;28;20193;-90
2022/11/17 03:04:16;;;;;;;2.73;2.53;;;11.10;99.90;;;;;;5004470;28;20210;-89
2022/11/17 03:07:08;;;;;;;2.33;2.17;;;11.10;99.90;;;;;;5004360;28;20223;-89
2022/11/17 03:09:45;;;;;;;2.23;2.03;;;11.10;99.90;;;;;;4999356;28;20207;-88
2022/11/17 03:12:13;;;;;;;2.27;2.10;;;11.20;99.90;;;;;;5004083;28;20258;-89
2022/11/17 03:15:05;;;;;;;2.67;2.47;;;11.20;99.90;;;;;;5000688;28;20844;-88
2022/11/17 03:17:30;;;;;;;2.77;2.57;;;11.20;99.90;;;;;;4981282;28;20596;-89
2022/11/17 03:20:01;;;;;;;3.20;2.90;;;11.20;99.90;;;;;;5021088;28;20298;-89
2022/11/17 03:22:35;;;;;;;4.60;3.13;;;11.20;99.90;;;;;;5008164;28;20175;-90
2022/11/17 03:25:05;;;;;;;2.73;2.30;;;11.20;99.90;;;;;;5008176;28;20241;-88
2022/11/17 03:27:36;;;;;;;2.87;2.27;;;11.20;99.90;;;;;;5011223;28;20178;-89
2022/11/17 03:30:07;;;;;;;4.13;2.50;;;11.20;99.90;;;;;;5008199;28;20276;-90
2022/11/17 03:32:37;;;;;;;2.53;2.33;;;11.20;99.90;;;;;;5008901;28;20189;-89
2022/11/17 03:35:10;;;;;;;3.00;2.60;;;11.40;99.90;;;;;;5008926;28;20487;-89
2022/11/17 03:37:40;;;;;;;3.07;2.77;;;11.40;99.90;;;;;;5013308;28;20242;-88
2022/11/17 03:40:12;;;;;;;3.47;2.60;;;11.40;99.90;;;;;;5004963;28;20199;-89
2022/11/17 03:42:43;;;;;;;2.50;2.30;;;11.10;99.90;;;;;;5008858;28;20630;-90
2022/11/17 03:45:13;;;;;;;2.67;2.47;;;11.00;99.90;;;;;;5009011;28;20228;-89
2022/11/17 03:47:40;;;;;;;2.53;2.33;;;11.00;99.90;;;;;;5009181;28;20219;-89
2022/11/17 03:50:11;;;;;;;2.63;2.43;;;11.00;99.90;;;;;;5006033;28;20643;-88
2022/11/17 03:52:37;;;;;;;2.70;2.23;;;11.10;99.90;;;;;;5005698;28;20175;-89
2022/11/17 03:55:04;;;;;;;2.80;2.60;;;11.20;99.90;;;;;;5009121;28;20206;-90
2022/11/17 03:57:51;;;;;;;3.23;2.20;;;11.10;99.90;;;;;;5005780;28;20182;-88
2022/11/17 04:00:18;;;;;;;2.73;2.43;;;11.20;99.90;;;;;;5005516;28;20179;-89
2022/11/17 04:02:46;;;;;;;2.53;2.33;;;11.10;99.90;;;;;;5001895;28;20602;-89
2022/11/17 04:05:16;;;;;;;4.43;2.50;;;11.10;99.90;;;;;;5008732;28;20236;-89
2022/11/17 04:07:43;;;;;;;2.80;2.50;;;11.10;99.90;;;;;;5008170;28;20206;-89
2022/11/17 04:10:21;;;;;;;2.57;2.37;;;11.20;99.90;;;;;;5005684;28;20199;-87
2022/11/17 04:18:17;;;;;;;2.97;2.57;;;10.90;99.90;;;;;;5008477;28;20279;-89
2022/11/17 04:20:42;;;;;;;4.80;2.30;;;10.90;99.90;;;;;;5002640;28;20656;-89
2022/11/17 04:23:12;;;;;;;3.10;2.40;;;10.90;99.90;;;;;;5000656;28;20219;-89
2022/11/17 04:28:36;;;;;;;2.40;2.20;;;10.80;99.90;;;;;;5006629;28;20830;-89
2022/11/17 04:31:23;;;;;;;2.43;2.23;;;10.80;99.90;;;;;;5006632;28;20188;-91
2022/11/17 04:33:51;;;;;;;2.43;2.23;;;10.80;99.90;;;;;;5006356;28;20252;-89
2022/11/17 04:36:30;;;;;;;2.67;2.53;;;10.90;99.90;;;;;;5005698;28;20270;-90
2022/11/17 04:38:58;;;;;;;4.03;2.37;;;10.90;99.90;;;;;;4999553;28;20701;-88
2022/11/17 04:44:11;;;;;;;2.30;2.10;;;10.90;99.90;;;;;;5015788;28;20227;-89
2022/11/17 04:46:39;;;;;;;2.17;2.00;;;10.80;99.90;;;;;;5016913;28;20215;-89
2022/11/17 04:49:05;;;;;;;2.67;1.80;;;10.80;99.90;;;;;;5001334;28;20197;-89
2022/11/17 04:51:32;;;;;;;2.37;1.87;;;10.80;99.90;;;;;;5008878;28;20192;-90
2022/11/17 04:53:58;;;;;;;2.07;1.87;;;10.80;99.90;;;;;;5014887;28;20210;-89
2022/11/17 04:56:24;;;;;;;1.83;1.70;;;10.90;99.90;;;;;;5002905;28;20213;-89
2022/11/17 04:58:50;;;;;;;2.47;1.73;;;11.10;99.90;;;;;;5007933;28;20183;-89
2022/11/17 05:01:17;;;;;;;2.77;1.80;;;11.10;99.90;;;;;;5011668;28;20219;-89
2022/11/17 05:03:54;;;;;;;1.80;1.70;;;11.10;99.90;;;;;;5007482;28;20224;-89
2022/11/17 05:06:23;;;;;;;1.60;1.50;;;11.10;99.90;;;;;;5009236;28;20211;-89
2022/11/17 05:08:49;;;;;;;1.70;1.60;;;11.20;99.90;;;;;;5009230;28;20199;-89
2022/11/17 05:14:01;;;;;;;3.37;1.70;;;11.10;99.90;;;;;;5012882;28;20333;-90
2022/11/17 05:19:15;;;;;;;4.63;2.10;;;10.90;99.90;;;;;;5014640;28;20262;-89
2022/11/17 05:21:40;;;;;;;1.90;1.80;;;11.00;99.90;;;;;;5018081;28;20191;-89
2022/11/17 05:24:07;;;;;;;1.90;1.70;;;11.10;99.90;;;;;;5006431;28;20207;-89
2022/11/17 05:26:34;;;;;;;2.00;1.87;;;11.10;99.90;;;;;;5013492;28;20201;-88
2022/11/17 05:29:01;;;;;;;1.93;1.80;;;11.20;99.90;;;;;;5014155;28;20945;-87
2022/11/17 05:31:28;;;;;;;3.80;2.10;;;11.10;99.90;;;;;;5012578;28;20816;-91
2022/11/17 06:23:04;;;;;;;5.00;1.97;;;11.20;99.90;;;;;;5013016;28;20226;-90
2022/11/17 06:25:32;;;;;;;1.80;1.60;;;11.30;99.90;;;;;;4991426;28;20270;-89
2022/11/17 06:28:01;;;;;;;1.93;1.77;;;11.30;99.90;;;;;;5007417;28;20220;-92
2022/11/17 06:30:28;;;;;;;4.57;2.07;;;11.30;99.90;;;;;;4998569;28;20225;-88
2022/11/17 06:32:55;;;;;;;2.33;2.10;;;11.30;99.90;;;;;;5002663;28;20338;-90
2022/11/17 06:35:21;;;;;;;2.37;2.00;;;11.30;99.90;;;;;;5006037;28;20224;-89
2022/11/17 06:37:46;;;;;;;2.97;1.90;;;11.30;99.90;;;;;;5002792;28;20195;-87
2022/11/17 06:40:12;;;;;;;2.80;1.77;;;11.30;99.90;;;;;;4999133;28;20231;-89
2022/11/17 06:45:23;;;;;;;1.80;1.70;;;11.40;99.90;;;;;;5003347;28;20399;-87
2022/11/17 06:47:51;;;;;;;3.70;1.80;;;11.50;99.90;;;;;;5005391;28;20212;-87
2022/11/17 06:50:16;;;;;;;2.87;2.03;;;11.40;99.90;;;;;;5003803;28;21349;-89
2022/11/17 06:52:42;;;;;;;3.37;2.40;;;11.40;99.90;;;;;;5005405;28;20249;-87
2022/11/17 06:55:07;;;;;;;2.47;2.00;;;11.50;99.90;;;;;;5006591;28;20252;-89
2022/11/17 06:57:33;;;;;;;2.37;2.10;;;11.50;99.90;;;;;;4989070;28;20211;-89
2022/11/17 06:59:59;;;;;;;3.27;2.70;;;11.50;99.90;;;;;;5005330;28;20204;-87
2022/11/17 07:02:24;;;;;;;3.10;2.50;;;11.50;99.90;;;;;;5008811;28;20192;-87
2022/11/17 07:04:50;;;;;;;2.20;2.00;;;11.60;99.90;;;;;;5006286;28;20738;-88
2022/11/17 07:07:15;;;;;;;2.30;2.10;;;11.60;99.90;;;;;;5007603;28;20235;-88
2022/11/17 07:09:41;;;;;;;3.70;1.97;;;11.50;99.90;;;;;;5010609;28;20258;-87
2022/11/17 07:12:07;;;;;;;2.97;2.07;;;11.50;99.90;;;;;;5009333;28;20284;-89
2022/11/17 07:14:32;;;;;;;3.83;2.13;;;11.50;99.90;;;;;;5009889;28;20252;-88
2022/11/17 07:16:58;;;;;;;3.03;2.20;;;11.50;99.90;;;;;;5010743;28;20239;-88
2022/11/17 07:19:23;;;;;;;4.37;1.93;;;11.60;99.90;;;;;;5009664;28;20200;-88
2022/11/17 07:21:49;;;;;;;2.90;2.37;;;11.50;99.90;;;;;;5008437;28;20683;-88
2022/11/17 07:24:15;;;;;;;5.13;2.17;;;11.80;99.90;;;;;;5010427;28;20207;-87
2022/11/17 07:26:40;;;;;;;3.70;2.00;;;11.90;99.90;;;;;;5003346;28;20663;-90
2022/11/17 07:29:06;;;;;;;4.20;2.10;;;12.10;99.90;;;;;;5004537;28;20215;-87
2022/11/17 07:31:35;;;;;;;4.53;2.23;;;12.10;99.90;;;;;;5010052;28;20206;-87
2022/11/17 07:34:00;;;;;;;2.63;1.87;;;12.20;99.90;;;;;;5005025;28;20288;-90
2022/11/17 07:36:26;;;;;;;3.77;2.20;;;12.30;99.90;;;;;;5002427;28;20398;-86
2022/11/17 07:38:52;;;;;;;3.17;2.17;;;12.30;99.90;;;;;;4979201;28;20946;-87
2022/11/17 07:41:17;;;;;;;3.47;2.17;;;12.30;99.90;;;;;;4981426;28;20196;-88
2022/11/17 07:43:43;;;;;;;3.33;2.47;;;12.30;99.90;;;;;;4983575;28;20284;-87
2022/11/17 07:46:14;;;;;;;4.07;2.00;;;12.30;99.90;;;;;;4979604;28;20206;-88
2022/11/17 07:48:41;;;;;;;4.13;1.90;;;12.30;99.90;;;;;;4981634;28;20224;-87
2022/11/17 07:51:07;;;;;;;2.40;1.87;;;12.30;99.90;;;;;;4985517;28;20200;-90
2022/11/17 07:53:34;;;;;;;2.40;2.00;;;12.30;99.90;;;;;;4991229;28;20201;-88
2022/11/17 07:56:05;;;;;;;2.63;2.00;;;12.40;99.90;;;;;;4986960;28;20799;-91
2022/11/17 07:58:31;;;;;;;2.43;1.70;;;12.30;99.90;;;;;;4973101;28;20218;-89
2022/11/17 08:00:57;;;;;;;3.00;1.93;;;12.20;99.90;;;;;;4988577;28;20212;-87
2022/11/17 08:03:23;;;;;;;4.70;2.10;;;12.30;99.90;;;;;;4880879;28;20248;-90
2022/11/17 08:05:49;;;;;;;4.50;1.90;;;12.30;99.90;;;;;;4863608;28;106394;-89
2022/11/17 08:08:14;;;;;;;2.17;1.87;;;12.30;99.90;;;;;;4984528;28;20194;-89
2022/11/17 08:10:41;;;;;;;3.03;2.13;;;12.30;99.90;;;;;;4978304;28;20201;-89
2022/11/17 08:13:07;;;;;;;3.20;2.17;;;12.30;99.90;;;;;;4982069;28;21199;-88
2022/11/17 08:15:33;;;;;;;4.73;2.40;;;12.30;99.90;;;;;;4981405;28;20232;-88
2022/11/17 08:18:00;;;;;;;2.63;1.80;;;12.30;99.90;;;;;;4979494;28;20246;-89
2022/11/17 08:20:28;;;;;;;3.47;1.97;;;12.40;99.90;;;;;;4986666;28;20217;-89
2022/11/17 08:22:54;;;;;;;3.00;1.80;;;12.50;99.30;;;;;;4996220;28;20205;-89
2022/11/17 08:25:22;;;;;;;3.87;1.93;;;12.50;99.90;;;;;;4986815;28;20195;-87
2022/11/17 08:27:50;;;;;;;5.87;2.33;;;12.60;99.90;;;;;;4985150;28;20201;-89
2022/11/17 08:30:19;;;;;;;3.47;2.10;;;12.70;99.90;;;;;;4982650;28;20217;-90
2022/11/17 08:32:47;;;;;;;2.97;1.93;;;12.70;99.90;;;;;;4984165;28;20197;-91
2022/11/17 08:35:13;;;;;;;2.97;1.63;;;12.60;99.90;;;;;;4987876;28;20807;-88
2022/11/17 08:37:40;;;;;;;2.83;2.00;;;12.70;99.90;;;;;;4990857;28;20219;-88
2022/11/17 08:40:06;;;;;;;2.00;1.80;;;12.80;99.90;;;;;;4988057;28;20846;-88
2022/11/17 08:42:32;;;;;;;2.63;1.90;;;12.80;99.90;;;;;;4988382;28;20573;-89
2022/11/17 08:44:57;;;;;;;2.23;1.67;;;12.80;99.90;;;;;;4986410;28;20224;-88
2022/11/17 08:47:23;;;;;;;2.70;2.10;;;12.70;99.90;;;;;;4988745;28;20288;-88
2022/11/17 08:49:49;;;;;;;3.70;2.40;;;12.80;98.80;;;;;;4970609;28;20236;-89
2022/11/17 08:52:15;;;;;;;2.90;1.87;;;12.80;98.50;;;;;;4987384;28;20247;-89
2022/11/17 08:54:40;;;;;;;3.47;1.97;;;12.80;98.20;;;;;;4973058;28;20190;-89
2022/11/17 08:57:06;;;;;;;2.30;2.03;;;12.90;98.80;;;;;;4988153;28;20328;-89
2022/11/17 08:59:31;;;;;;;2.77;1.73;;;13.00;97.00;;;;;;4983267;28;20299;-89
2022/11/17 09:01:57;;;;;;;3.90;2.03;;;12.90;97.20;;;;;;4986990;28;20197;-90
2022/11/17 09:04:23;;;;;;;3.73;2.23;;;13.00;96.80;;;;;;4988046;28;20188;-89
2022/11/17 09:06:48;;;;;;;2.17;1.97;;;12.90;95.90;;;;;;4986793;28;20757;-87
2022/11/17 09:09:14;;;;;;;3.23;2.27;;;12.90;94.70;;;;;;4990384;28;20213;-87
2022/11/17 09:11:39;;;;;;;2.47;2.07;;;12.90;96.20;;;;;;4977284;28;20192;-88
2022/11/17 09:14:06;;;;;;;6.20;2.00;;;12.90;96.20;;;;;;4989211;28;20282;-91
2022/11/17 09:16:32;;;;;;;4.77;1.83;;;12.90;95.90;;;;;;4976079;28;20361;-90
2022/11/17 09:18:57;;;;;;;4.10;2.10;;;12.90;96.80;;;;;;4986315;28;20673;-89
2022/11/17 09:21:25;;;;;;;3.50;1.70;;;12.90;96.30;;;;;;4994391;28;20227;-88
2022/11/17 09:23:51;;;;;;;3.50;2.07;;;12.90;95.80;;;;;;4971222;28;20249;-88
2022/11/17 09:26:17;;;;;;;2.40;1.73;;;12.90;95.70;;;;;;4974345;28;20651;-89
2022/11/17 09:28:43;;;;;;;2.33;2.10;;;13.00;94.60;;;;;;4993959;28;20696;-88
2022/11/17 09:31:12;;;;;;;3.70;2.27;;;12.90;94.90;;;;;;4975102;28;20189;-88
2022/11/17 09:33:38;;;;;;;3.57;2.03;;;13.00;94.70;;;;;;4986960;28;20189;-89
2022/11/17 09:36:06;;;;;;;2.97;1.90;;;13.10;93.50;;;;;;4976384;28;20600;-88
2022/11/17 09:38:32;;;;;;;3.50;1.93;;;13.00;92.80;;;;;;4993836;28;20211;-91
2022/11/17 09:40:58;;;;;;;4.27;2.00;;;13.00;92.20;;;;;;4976257;28;20193;-87
2022/11/17 09:43:28;;;;;;;2.70;1.90;;;12.90;92.40;;;;;;4992500;28;20179;-87
2022/11/17 09:46:12;;;;;;;4.53;1.93;;;12.90;91.30;;;;;;4968498;28;20261;-88
2022/11/17 09:48:43;;;;;;;5.37;2.10;;;12.90;91.50;;;;;;4991485;28;20200;-92
2022/11/17 09:51:13;;;;;;;3.93;1.90;;;12.90;91.60;;;;;;5006993;28;20279;-88
2022/11/17 09:53:49;;;;;;;4.23;1.97;;;12.90;91.10;;;;;;4986644;28;20190;-89
2022/11/17 09:56:16;;;;;;;4.30;2.13;;;12.90;91.90;;;;;;5000348;28;20209;-91
2022/11/17 09:59:03;;;;;;;4.73;2.30;;;12.90;90.60;;;;;;5005848;28;20241;-88
2022/11/17 10:01:29;;;;;;;5.60;2.10;;;13.00;91.40;;;;;;5001555;28;20346;-88
2022/11/17 10:03:57;;;;;;;3.13;2.23;;;13.10;90.30;;;;;;4991587;28;20247;-92
2022/11/17 10:06:29;;;;;;;3.00;2.13;;;13.30;89.30;;;;;;5019727;28;20199;-91
2022/11/17 10:09:03;;;;;;;3.70;2.03;;;13.40;88.70;;;;;;5019635;28;20235;-91
2022/11/17 10:11:32;;;;;;;3.80;2.00;;;13.50;87.70;;;;;;4991653;28;20200;-87
2022/11/17 10:14:12;;;;;;;3.37;2.30;;;13.50;85.60;;;;;;4997193;28;20192;-87
2022/11/17 10:16:51;;;;;;;5.10;2.00;;;13.40;88.20;;;;;;4996401;28;20209;-88
2022/11/17 10:19:27;;;;;;;4.23;2.20;;;13.40;88.10;;;;;;4998967;28;20347;-87
2022/11/17 10:22:02;;;;;;;3.60;2.10;;;13.50;86.40;;;;;;4987888;28;20220;-87
2022/11/17 10:24:36;;;;;;;3.83;2.17;;;13.30;87.90;;;;;;4980093;28;20221;-89
2022/11/17 10:27:31;;;;;;;6.20;2.53;;;13.10;90.10;;;;;;4973913;28;20198;-87
2022/11/17 10:30:05;;;;;;;5.17;2.60;;;12.90;92.70;;;;;;4989163;28;20249;-88
2022/11/17 10:32:34;;;;;;;4.73;2.20;;;12.80;95.20;;;;;;4995191;28;20203;-89
2022/11/17 10:35:17;;;;;;;3.87;2.60;;;12.80;95.40;;;;;;4969837;28;20639;-89
2022/11/17 10:38:10;;;;;;;5.40;2.20;;;12.60;94.20;;;;;;4976351;28;20193;-86
2022/11/17 10:40:39;;;;;;;3.60;2.20;;;12.60;97.90;;;;;;4974939;28;20227;-89
2022/11/17 10:43:16;;;;;;;5.90;2.60;;;12.60;99.80;;;;;;4957765;28;20237;-87
2022/11/17 10:45:54;;;;;;;3.77;2.10;;;12.50;98.90;;;;;;4979619;28;20213;-87
2022/11/17 10:48:29;;;;;;;3.50;2.20;;;12.50;99.00;;;;;;4985702;28;20241;-87
2022/11/17 10:50:58;;;;;;;5.40;2.33;;;12.60;97.00;;;;;;4985413;28;20217;-88
2022/11/17 10:53:40;;;;;;;3.27;1.80;;;12.80;93.00;;;;;;4981130;28;20304;-87
2022/11/17 10:56:11;;;;;;;4.07;2.30;;;12.90;94.80;;;;;;4982374;28;20224;-89
2022/11/17 10:59:07;;;;;;;3.83;2.37;;;12.90;91.10;;;;;;4984336;28;20300;-89
2022/11/17 11:01:38;;;;;;;5.17;2.20;;;13.10;91.20;;;;;;4985548;28;20277;-87
2022/11/17 11:04:05;;;;;;;3.73;2.33;;;13.10;91.40;;;;;;4986277;28;20205;-88
2022/11/17 11:06:33;;;;;;;2.63;2.00;;;13.20;90.70;;;;;;4983180;28;20190;-87
2022/11/17 11:09:20;;;;;;;5.27;2.70;;;13.20;89.10;;;;;;4983633;28;20308;-88
2022/11/17 11:11:49;;;;;;;6.63;2.70;;;13.10;91.70;;;;;;4982086;28;20193;-88
2022/11/17 11:14:24;;;;;;;6.57;2.23;;;13.10;91.30;;;;;;4985980;28;20315;-87
2022/11/17 11:16:53;;;;;;;5.60;2.20;;;13.20;89.20;;;;;;4987207;28;20220;-85
2022/11/17 11:19:19;;;;;;;5.30;2.20;;;13.20;90.00;;;;;;4994758;28;20248;-86
2022/11/17 11:22:12;;;;;;;4.47;2.10;;;13.30;90.60;;;;;;4990047;28;20201;-87
2022/11/17 11:24:52;;;;;;;2.10;1.90;;;13.40;90.70;;;;;;4990186;28;20518;-88
2022/11/17 11:27:43;;;;;;;3.57;2.20;;;13.70;90.70;;;;;;4989065;28;20190;-87
2022/11/17 11:30:12;;;;;;;4.07;2.23;;;13.70;89.60;;;;;;4987476;28;20206;-85
2022/11/17 11:33:05;;;;;;;5.03;2.43;;;13.70;88.90;;;;;;4979695;28;20192;-87
2022/11/17 11:35:51;;;;;;;4.03;2.27;;;13.90;89.00;;;;;;4975839;28;20326;-87
2022/11/17 11:38:29;;;;;;;5.20;2.50;;;14.30;85.60;;;;;;4982330;28;20298;-88
2022/11/17 11:41:16;;;;;;;5.30;2.43;;;14.70;84.50;;;;;;4984710;28;20224;-88
2022/11/17 11:44:03;;;;;;;5.73;2.60;;;14.80;84.80;;;;;;4980547;28;20186;-89
2022/11/17 11:46:34;;;;;;;2.90;2.10;;;14.70;84.10;;;;;;4985225;28;20208;-90
2022/11/17 11:49:14;;;;;;;4.57;2.53;;;14.70;84.80;;;;;;4984008;28;20275;-87
2022/11/17 11:51:41;;;;;;;6.40;2.40;;;14.70;87.40;;;;;;4980653;28;20282;-88
2022/11/17 11:54:15;;;;;;;3.57;2.10;;;15.00;84.30;;;;;;4979150;28;20197;-88
2022/11/17 11:56:45;;;;;;;6.47;2.60;;;14.70;85.70;;;;;;4982497;28;20617;-88
2022/11/17 11:59:39;;;;;;;3.77;2.20;;;14.40;87.90;;;;;;4980546;28;20237;-86
2022/11/17 12:02:11;;;;;;;4.47;2.17;;;14.10;89.70;;;;;;4980485;28;20217;-88
2022/11/17 12:04:43;;;;;;;7.10;2.83;;;14.10;91.30;;;;;;4980769;28;20773;-87
2022/11/17 12:07:21;;;;;;;5.00;2.57;;;14.10;92.30;;;;;;4982411;28;20209;-89
2022/11/17 12:09:50;;;;;;;8.13;2.80;;;14.00;92.90;;;;;;4984106;28;20217;-89
2022/11/17 12:12:29;;;;;;;5.70;2.53;;;13.90;92.80;;;;;;4981456;28;20225;-90
2022/11/17 12:15:08;;;;;;;5.13;2.67;;;14.00;93.40;;;;;;4980861;28;20197;-88
2022/11/17 12:17:35;;;;;;;4.67;2.30;;;13.80;91.60;;;;;;4981522;28;20197;-88
2022/11/17 12:20:03;;;;;;;5.27;2.67;;;13.90;93.40;;;;;;4982682;28;20237;-88
2022/11/17 12:22:29;;;;;;;4.90;2.50;;;13.80;93.10;;;;;;4979898;28;20208;-86
2022/11/17 12:25:23;;;;;;;10.33;3.13;;;14.00;90.80;;;;;;4983824;28;20187;-89
2022/11/17 12:27:51;;;;;;;3.73;2.43;;;13.90;91.50;;;;;;4981985;28;20198;-89
2022/11/17 12:30:32;;;;;;;6.30;3.00;;;13.90;92.20;;;;;;4982142;28;20222;-90
2022/11/17 12:33:07;;;;;;;4.47;2.73;;;14.00;91.90;;;;;;4981243;28;20243;-87
2022/11/17 12:35:35;;;;;;;9.40;2.90;;;13.80;90.30;;;;;;4971878;28;20214;-86
2022/11/17 12:38:15;;;;;;;5.87;3.07;;;13.80;93.10;;;;;;4978931;28;20467;-91
2022/11/17 12:40:55;;;;;;;7.90;2.70;;;13.60;93.10;;;;;;4981010;28;20216;-87
2022/11/17 12:43:22;;;;;;;7.43;3.00;;;13.50;93.50;;;;;;4980084;28;20205;-92
2022/11/17 12:45:56;;;;;;;8.17;3.10;;;13.40;94.70;;;;;;4985987;28;20193;-87
2022/11/17 12:48:25;;;;;;;3.10;2.40;;;13.30;95.60;;;;;;4984615;28;20244;-90
2022/11/17 12:51:05;;;;;;;4.23;2.33;;;13.00;97.20;;;;;;4985334;28;20196;-89
2022/11/17 12:53:59;;;;;;;4.30;2.40;;;12.80;94.60;;;;;;4987849;28;20224;-90
2022/11/17 12:56:36;;;;;;;3.17;2.17;;;12.80;96.30;;;;;;4988191;28;20213;-89
2022/11/17 12:59:22;;;;;;;4.33;2.33;;;12.70;98.40;;;;;;5001893;28;20233;-87
2022/11/17 13:01:53;;;;;;;3.77;2.13;;;12.80;97.80;;;;;;4991018;28;20191;-88
2022/11/17 13:04:29;;;;;;;3.67;1.90;;;12.70;96.50;;;;;;4994190;28;20194;-88
2022/11/17 13:07:07;;;;;;;3.23;2.00;;;12.80;96.40;;;;;;4995040;28;20181;-89
2022/11/17 13:09:35;;;;;;;3.23;1.60;;;12.70;95.70;;;;;;4988936;28;20233;-92
2022/11/17 13:12:05;;;;;;;1.73;1.60;;;12.80;94.50;;;;;;4993120;28;20186;-87
2022/11/17 13:14:32;;;;;;;2.40;1.90;;;13.00;93.70;;;;;;4989128;28;21029;-88
2022/11/17 13:16:59;;;;;;;2.63;2.00;;;13.00;93.10;;;;;;4990411;28;20225;-88
2022/11/17 13:19:35;;;;;;;3.20;1.90;;;13.00;92.70;;;;;;4973652;28;20700;-88
2022/11/17 13:22:14;;;;;;;6.07;2.10;;;13.10;94.10;;;;;;4985763;28;20214;-87
2022/11/17 13:24:43;;;;;;;3.53;1.87;;;13.10;93.70;;;;;;5002644;28;21671;-89
2022/11/17 13:27:30;;;;;;;3.07;2.47;;;13.10;93.20;;;;;;4986789;28;20776;-87
2022/11/17 13:30:20;;;;;;;4.17;2.03;;;13.20;92.50;;;;;;4990696;28;20249;-89
2022/11/17 13:32:47;;;;;;;7.73;2.13;;;13.10;94.40;;;;;;4987992;28;20627;-89
2022/11/17 13:35:24;;;;;;;2.87;2.20;;;13.20;94.30;;;;;;4986794;28;20223;-88
2022/11/17 13:38:00;;;;;;;5.03;2.07;;;13.10;95.20;;;;;;4983495;28;20220;-89
2022/11/17 13:40:27;;;;;;;3.83;2.03;;;13.20;93.70;;;;;;4988734;28;20213;-89
2022/11/17 13:42:53;;;;;;;3.17;2.33;;;13.00;94.90;;;;;;4990919;28;20192;-88
2022/11/17 13:45:19;;;;;;;4.50;2.57;;;13.00;97.30;;;;;;4991110;28;20206;-87
2022/11/17 13:47:47;;;;;;;5.70;2.50;;;12.90;97.00;;;;;;4984155;28;20530;-91
2022/11/17 13:50:30;;;;;;;5.50;2.10;;;12.90;98.20;;;;;;4993234;28;20901;-87
2022/11/17 13:53:20;;;;;;;3.17;2.00;;;12.90;99.30;;;;;;4995890;28;20188;-90
2022/11/17 13:55:47;;;;;;;5.60;2.93;;;12.90;99.80;;;;;;5008188;28;20241;-88
2022/11/17 13:58:42;;;;;;;29.43;21.10;;;13.00;99.90;;;;;;4995124;28;20191;-89
2022/11/17 14:01:11;;;;;;;32.97;25.77;;;13.10;99.90;;;;;;4971771;28;20883;-87
2022/11/17 14:03:42;;;;;;;108.97;82.70;;;13.10;99.90;;;;;;4997660;28;20255;-90
2022/11/17 14:06:10;;;;;;;11.07;9.10;;;13.00;99.70;;;;;;4992738;28;20198;-88
2022/11/17 14:08:38;;;;;;;3.50;2.27;;;13.10;99.90;;;;;;4992396;28;20223;-87
2022/11/17 14:11:05;;;;;;;5.43;2.20;;;12.90;99.90;;;;;;4996871;28;20193;-89
2022/11/17 14:13:59;;;;;;;5.03;2.70;;;12.80;99.90;;;;;;5026021;23;20302;-87
2022/11/17 14:16:28;;;;;;;7.30;2.50;;;12.80;99.90;;;;;;5005731;28;20282;-87
2022/11/17 14:19:22;;;;;;;5.70;2.60;;;12.70;99.90;;;;;;5018689;28;20223;-86
2022/11/17 14:22:07;;;;;;;4.20;2.50;;;12.80;99.90;;;;;;4983474;28;20197;-87
2022/11/17 14:24:37;;;;;;;7.77;2.83;;;12.80;99.90;;;;;;4997476;28;20204;-87
2022/11/17 14:27:26;;;;;;;6.10;2.50;;;12.80;99.90;;;;;;4997108;28;20198;-86